sensor_id;sensor_type;location;lat;lon;timestamp;P1;durP1;ratioP1;P2;durP2;ratioP2
27869;SDS011;15225;50.730;4.244;2024-02-26T15:23:10;10.75;;;7.90;;
27869;SDS011;15225;50.730;4.244;2024-02-26T15:25:37;10.13;;;7.30;;
27869;SDS011;15225;50.730;4.244;2024-02-26T15:28:03;6.13;;;5.13;;
27869;SDS011;15225;50.730;4.244;2024-02-26T15:30:31;9.48;;;5.47;;
27869;SDS011;15225;50.730;4.244;2024-02-26T15:32:57;5.97;;;4.43;;
27869;SDS011;15225;50.730;4.244;2024-02-26T15:35:23;6.78;;;4.75;;
27869;SDS011;15225;50.730;4.244;2024-02-26T15:37:49;6.55;;;5.40;;
27869;SDS011;15225;50.730;4.244;2024-02-26T15:40:15;5.32;;;4.30;;
27869;SDS011;15225;50.730;4.244;2024-02-26T15:42:41;6.50;;;5.00;;
27869;SDS011;15225;50.730;4.244;2024-02-26T15:45:06;4.60;;;3.60;;
27869;SDS011;15225;50.730;4.244;2024-02-26T15:47:33;5.13;;;4.35;;
27869;SDS011;15225;50.730;4.244;2024-02-26T15:50:00;4.97;;;4.15;;
27869;SDS011;15225;50.730;4.244;2024-02-26T15:52:26;4.57;;;4.10;;
27869;SDS011;15225;50.730;4.244;2024-02-26T15:54:53;5.50;;;3.53;;
27869;SDS011;15225;50.730;4.244;2024-02-26T15:57:19;5.25;;;3.83;;
27869;SDS011;15225;50.730;4.244;2024-02-26T15:59:45;8.02;;;4.05;;
27869;SDS011;15225;50.730;4.244;2024-02-26T16:02:14;4.80;;;4.03;;
27869;SDS011;15225;50.730;4.244;2024-02-26T16:04:40;6.68;;;4.65;;
27869;SDS011;15225;50.730;4.244;2024-02-26T16:07:05;7.40;;;4.28;;
27869;SDS011;15225;50.730;4.244;2024-02-26T16:09:37;5.60;;;4.20;;
27869;SDS011;15225;50.730;4.244;2024-02-26T16:12:15;6.97;;;4.25;;
27869;SDS011;15225;50.730;4.244;2024-02-26T16:14:59;4.55;;;4.10;;
27869;SDS011;15225;50.730;4.244;2024-02-26T16:17:28;5.25;;;3.67;;
27869;SDS011;15225;50.730;4.244;2024-02-26T16:19:56;4.60;;;3.90;;
27869;SDS011;15225;50.730;4.244;2024-02-26T16:22:23;5.88;;;4.10;;
27869;SDS011;15225;50.730;4.244;2024-02-26T16:24:49;7.38;;;4.32;;
27869;SDS011;15225;50.730;4.244;2024-02-26T16:27:15;4.07;;;3.50;;
27869;SDS011;15225;50.730;4.244;2024-02-26T16:29:41;4.10;;;3.58;;
27869;SDS011;15225;50.730;4.244;2024-02-26T16:32:07;5.85;;;4.05;;
27869;SDS011;15225;50.730;4.244;2024-02-26T16:34:33;5.68;;;4.65;;
27869;SDS011;15225;50.730;4.244;2024-02-26T16:37:09;7.75;;;4.10;;
27869;SDS011;15225;50.730;4.244;2024-02-26T16:39:37;5.82;;;4.57;;
27869;SDS011;15225;50.730;4.244;2024-02-26T16:42:04;5.85;;;4.40;;
27869;SDS011;15225;50.730;4.244;2024-02-26T16:44:32;7.30;;;4.88;;
27869;SDS011;15225;50.730;4.244;2024-02-26T16:47:01;5.22;;;3.53;;
27869;SDS011;15225;50.730;4.244;2024-02-26T16:49:28;6.53;;;4.80;;
27869;SDS011;15225;50.730;4.244;2024-02-26T16:51:54;9.15;;;4.28;;
27869;SDS011;15225;50.730;4.244;2024-02-26T16:54:20;4.90;;;4.18;;
27869;SDS011;15225;50.730;4.244;2024-02-26T16:56:46;5.43;;;4.22;;
27869;SDS011;15225;50.730;4.244;2024-02-26T16:59:12;7.65;;;4.18;;
27869;SDS011;15225;50.730;4.244;2024-02-26T17:01:38;5.43;;;4.55;;
27869;SDS011;15225;50.730;4.244;2024-02-26T17:04:04;6.43;;;4.70;;
27869;SDS011;15225;50.730;4.244;2024-02-26T17:06:31;6.25;;;4.47;;
27869;SDS011;15225;50.730;4.244;2024-02-26T17:08:56;5.15;;;4.25;;
27869;SDS011;15225;50.730;4.244;2024-02-26T17:11:22;7.20;;;4.72;;
27869;SDS011;15225;50.730;4.244;2024-02-26T17:13:49;8.13;;;5.32;;
27869;SDS011;15225;50.730;4.244;2024-02-26T17:16:15;6.32;;;4.57;;
27869;SDS011;15225;50.730;4.244;2024-02-26T17:18:41;8.63;;;5.82;;
27869;SDS011;15225;50.730;4.244;2024-02-26T17:21:08;5.85;;;4.70;;
27869;SDS011;15225;50.730;4.244;2024-02-26T17:23:34;5.00;;;3.95;;
27869;SDS011;15225;50.730;4.244;2024-02-26T17:26:00;6.47;;;4.95;;
27869;SDS011;15225;50.730;4.244;2024-02-26T17:28:26;5.80;;;5.03;;
27869;SDS011;15225;50.730;4.244;2024-02-26T17:30:52;5.38;;;4.65;;
27869;SDS011;15225;50.730;4.244;2024-02-26T17:33:17;5.13;;;4.63;;
27869;SDS011;15225;50.730;4.244;2024-02-26T17:35:44;6.45;;;5.10;;
27869;SDS011;15225;50.730;4.244;2024-02-26T17:38:10;5.57;;;5.00;;
27869;SDS011;15225;50.730;4.244;2024-02-26T17:40:36;9.32;;;5.85;;
27869;SDS011;15225;50.730;4.244;2024-02-26T17:43:02;5.82;;;5.00;;
27869;SDS011;15225;50.730;4.244;2024-02-26T17:45:28;7.05;;;5.60;;
27869;SDS011;15225;50.730;4.244;2024-02-26T17:47:55;6.85;;;5.82;;
27869;SDS011;15225;50.730;4.244;2024-02-26T17:50:20;7.82;;;6.35;;
27869;SDS011;15225;50.730;4.244;2024-02-26T17:52:49;7.05;;;5.93;;
27869;SDS011;15225;50.730;4.244;2024-02-26T17:55:18;9.65;;;5.97;;
27869;SDS011;15225;50.730;4.244;2024-02-26T17:57:45;7.43;;;5.65;;
27869;SDS011;15225;50.730;4.244;2024-02-26T18:00:11;7.15;;;5.47;;
27869;SDS011;15225;50.730;4.244;2024-02-26T18:02:37;7.75;;;5.95;;
27869;SDS011;15225;50.730;4.244;2024-02-26T18:05:02;8.73;;;6.60;;
27869;SDS011;15225;50.730;4.244;2024-02-26T18:07:28;8.27;;;6.75;;
27869;SDS011;15225;50.730;4.244;2024-02-26T18:09:54;8.50;;;6.13;;
27869;SDS011;15225;50.730;4.244;2024-02-26T18:12:22;9.15;;;6.28;;
27869;SDS011;15225;50.730;4.244;2024-02-26T18:14:48;10.10;;;7.53;;
27869;SDS011;15225;50.730;4.244;2024-02-26T18:17:14;9.00;;;7.15;;
27869;SDS011;15225;50.730;4.244;2024-02-26T18:19:40;13.73;;;8.02;;
27869;SDS011;15225;50.730;4.244;2024-02-26T18:22:06;13.38;;;8.48;;
27869;SDS011;15225;50.730;4.244;2024-02-26T18:24:33;13.18;;;9.32;;
27869;SDS011;15225;50.730;4.244;2024-02-26T18:26:59;10.88;;;8.63;;
27869;SDS011;15225;50.730;4.244;2024-02-26T18:29:24;13.45;;;9.10;;
27869;SDS011;15225;50.730;4.244;2024-02-26T18:31:50;11.63;;;8.23;;
27869;SDS011;15225;50.730;4.244;2024-02-26T18:34:16;11.18;;;7.82;;
27869;SDS011;15225;50.730;4.244;2024-02-26T18:36:42;13.52;;;8.65;;
27869;SDS011;15225;50.730;4.244;2024-02-26T18:39:08;14.10;;;8.40;;
27869;SDS011;15225;50.730;4.244;2024-02-26T18:41:34;14.95;;;9.43;;
27869;SDS011;15225;50.730;4.244;2024-02-26T18:44:00;10.40;;;8.30;;
27869;SDS011;15225;50.730;4.244;2024-02-26T18:46:26;13.23;;;8.95;;
27869;SDS011;15225;50.730;4.244;2024-02-26T18:48:52;10.75;;;8.63;;
27869;SDS011;15225;50.730;4.244;2024-02-26T18:51:20;11.27;;;8.73;;
27869;SDS011;15225;50.730;4.244;2024-02-26T18:53:46;11.88;;;8.85;;
27869;SDS011;15225;50.730;4.244;2024-02-26T18:56:12;10.73;;;8.43;;
27869;SDS011;15225;50.730;4.244;2024-02-26T18:58:39;10.52;;;7.63;;
27869;SDS011;15225;50.730;4.244;2024-02-26T19:01:04;12.68;;;8.35;;
27869;SDS011;15225;50.730;4.244;2024-02-26T19:03:30;14.68;;;9.18;;
27869;SDS011;15225;50.730;4.244;2024-02-26T19:05:56;10.68;;;8.40;;
27869;SDS011;15225;50.730;4.244;2024-02-26T19:08:22;12.55;;;9.50;;
27869;SDS011;15225;50.730;4.244;2024-02-26T19:10:49;13.90;;;10.02;;
27869;SDS011;15225;50.730;4.244;2024-02-26T19:13:14;13.20;;;8.90;;
27869;SDS011;15225;50.730;4.244;2024-02-26T19:15:40;11.93;;;8.75;;
27869;SDS011;15225;50.730;4.244;2024-02-26T19:18:06;11.52;;;8.95;;
27869;SDS011;15225;50.730;4.244;2024-02-26T19:20:33;12.75;;;9.75;;
27869;SDS011;15225;50.730;4.244;2024-02-26T19:22:59;12.48;;;9.23;;
27869;SDS011;15225;50.730;4.244;2024-02-26T19:25:31;14.20;;;9.15;;
27869;SDS011;15225;50.730;4.244;2024-02-26T19:27:57;11.73;;;9.02;;
27869;SDS011;15225;50.730;4.244;2024-02-26T19:30:22;13.90;;;10.23;;
27869;SDS011;15225;50.730;4.244;2024-02-26T19:32:49;12.77;;;10.00;;
27869;SDS011;15225;50.730;4.244;2024-02-26T19:35:15;14.50;;;10.18;;
27869;SDS011;15225;50.730;4.244;2024-02-26T19:37:41;16.13;;;10.80;;
27869;SDS011;15225;50.730;4.244;2024-02-26T19:40:06;15.02;;;9.80;;
27869;SDS011;15225;50.730;4.244;2024-02-26T19:42:36;14.05;;;10.02;;
27869;SDS011;15225;50.730;4.244;2024-02-26T19:45:01;12.27;;;9.63;;
27869;SDS011;15225;50.730;4.244;2024-02-26T19:47:34;13.95;;;10.30;;
27869;SDS011;15225;50.730;4.244;2024-02-26T19:50:05;16.23;;;9.98;;
27869;SDS011;15225;50.730;4.244;2024-02-26T19:52:36;13.35;;;9.77;;
27869;SDS011;15225;50.730;4.244;2024-02-26T19:55:02;12.63;;;9.40;;
27869;SDS011;15225;50.730;4.244;2024-02-26T19:57:30;14.18;;;8.80;;
27869;SDS011;15225;50.730;4.244;2024-02-26T19:59:57;13.77;;;9.38;;
27869;SDS011;15225;50.730;4.244;2024-02-26T20:02:23;12.13;;;9.30;;
27869;SDS011;15225;50.730;4.244;2024-02-26T20:04:49;12.27;;;9.68;;
27869;SDS011;15225;50.730;4.244;2024-02-26T20:07:15;14.20;;;9.73;;
27869;SDS011;15225;50.730;4.244;2024-02-26T20:09:41;13.20;;;9.55;;
27869;SDS011;15225;50.730;4.244;2024-02-26T20:12:08;13.27;;;9.98;;
27869;SDS011;15225;50.730;4.244;2024-02-26T20:14:36;11.68;;;8.50;;
27869;SDS011;15225;50.730;4.244;2024-02-26T20:17:01;14.52;;;8.60;;
27869;SDS011;15225;50.730;4.244;2024-02-26T20:19:27;13.30;;;9.48;;
27869;SDS011;15225;50.730;4.244;2024-02-26T20:21:54;14.30;;;9.82;;
27869;SDS011;15225;50.730;4.244;2024-02-26T20:24:20;14.75;;;9.77;;
27869;SDS011;15225;50.730;4.244;2024-02-26T20:26:46;15.40;;;9.65;;
27869;SDS011;15225;50.730;4.244;2024-02-26T20:29:14;13.88;;;9.40;;
27869;SDS011;15225;50.730;4.244;2024-02-26T20:31:40;14.60;;;10.35;;
27869;SDS011;15225;50.730;4.244;2024-02-26T20:34:06;15.93;;;11.15;;
27869;SDS011;15225;50.730;4.244;2024-02-26T20:36:34;15.65;;;11.23;;
27869;SDS011;15225;50.730;4.244;2024-02-26T20:39:00;15.30;;;10.10;;
27869;SDS011;15225;50.730;4.244;2024-02-26T20:41:27;15.88;;;11.50;;
27869;SDS011;15225;50.730;4.244;2024-02-26T20:43:53;14.10;;;11.23;;
27869;SDS011;15225;50.730;4.244;2024-02-26T20:46:19;14.63;;;11.25;;
27869;SDS011;15225;50.730;4.244;2024-02-26T20:48:45;18.52;;;11.55;;
27869;SDS011;15225;50.730;4.244;2024-02-26T20:51:11;17.30;;;11.73;;
27869;SDS011;15225;50.730;4.244;2024-02-26T20:53:39;17.98;;;11.63;;
27869;SDS011;15225;50.730;4.244;2024-02-26T20:56:06;16.00;;;11.20;;
27869;SDS011;15225;50.730;4.244;2024-02-26T20:58:32;17.77;;;12.30;;
27869;SDS011;15225;50.730;4.244;2024-02-26T21:00:58;14.88;;;11.30;;
27869;SDS011;15225;50.730;4.244;2024-02-26T21:03:24;15.10;;;11.48;;
27869;SDS011;15225;50.730;4.244;2024-02-26T21:05:50;16.15;;;11.43;;
27869;SDS011;15225;50.730;4.244;2024-02-26T21:08:16;13.95;;;10.75;;
27869;SDS011;15225;50.730;4.244;2024-02-26T21:10:42;14.02;;;10.80;;
27869;SDS011;15225;50.730;4.244;2024-02-26T21:13:08;17.38;;;10.98;;
27869;SDS011;15225;50.730;4.244;2024-02-26T21:15:34;15.85;;;12.13;;
27869;SDS011;15225;50.730;4.244;2024-02-26T21:17:59;15.27;;;11.30;;
27869;SDS011;15225;50.730;4.244;2024-02-26T21:20:25;17.67;;;12.98;;
27869;SDS011;15225;50.730;4.244;2024-02-26T21:22:56;16.27;;;12.77;;
27869;SDS011;15225;50.730;4.244;2024-02-26T21:25:22;16.40;;;11.73;;
27869;SDS011;15225;50.730;4.244;2024-02-26T21:27:47;17.85;;;12.68;;
27869;SDS011;15225;50.730;4.244;2024-02-26T21:30:13;18.17;;;12.60;;
27869;SDS011;15225;50.730;4.244;2024-02-26T21:32:39;17.15;;;12.45;;
27869;SDS011;15225;50.730;4.244;2024-02-26T21:35:05;21.05;;;12.35;;
27869;SDS011;15225;50.730;4.244;2024-02-26T21:37:32;15.25;;;11.88;;
27869;SDS011;15225;50.730;4.244;2024-02-26T21:39:58;21.85;;;13.73;;
27869;SDS011;15225;50.730;4.244;2024-02-26T21:42:23;15.82;;;11.93;;
27869;SDS011;15225;50.730;4.244;2024-02-26T21:44:49;16.40;;;12.32;;
27869;SDS011;15225;50.730;4.244;2024-02-26T21:47:16;16.38;;;12.38;;
